Time;durP1;ratioP1;P1;durP2;ratioP2;P2;SDS_P1;SDS_P2;PMS_P1;PMS_P2;Temp;Humidity;BMP_temperature;BMP_pressure;BME280_temperature;BME280_humidity;BME280_pressure;Samples;Min_cycle;Max_cycle;Signal;HPM_P1;HPM_P2
2022/12/13 00:01:29;;;;;;;24.40;11.78;;;;;;;-1.86;95.25;99216.28;1757067;81;27598;-63
2022/12/13 00:03:58;;;;;;;19.73;11.15;;;;;;;-1.86;95.19;99221.05;1768423;81;25636;-63
2022/12/13 00:06:26;;;;;;;21.87;11.15;;;;;;;-1.87;95.07;99218.14;1757059;81;25535;-63
2022/12/13 00:08:53;;;;;;;23.02;11.10;;;;;;;-1.88;94.90;99219.98;1768316;81;25626;-63
2022/12/13 00:11:20;;;;;;;26.90;12.00;;;;;;;-1.90;94.79;99222.09;1757051;81;25404;-63
2022/12/13 00:13:47;;;;;;;25.27;12.90;;;;;;;-1.92;94.66;99223.41;1768464;81;27585;-63
2022/12/13 00:16:17;;;;;;;23.95;11.43;;;;;;;-1.93;94.46;99224.45;1756960;81;25876;-62
2022/12/13 00:18:47;;;;;;;22.22;11.22;;;;;;;-1.96;94.40;99227.59;1768421;81;25417;-63
2022/12/13 00:21:17;;;;;;;19.98;10.50;;;;;;;-1.96;94.41;99233.72;1757142;81;25589;-64
2022/12/13 00:23:46;;;;;;;21.00;10.93;;;;;;;-1.97;94.36;99235.30;1768519;80;25609;-64
2022/12/13 00:26:18;;;;;;;13.90;8.13;;;;;;;-1.99;94.29;99232.06;1757262;81;28069;-63
2022/12/13 00:28:48;;;;;;;24.67;11.70;;;;;;;-2.01;94.14;99231.53;1756984;81;25660;-63
2022/12/13 00:31:17;;;;;;;23.87;11.30;;;;;;;-2.07;94.03;99234.13;1768460;81;25548;-63
2022/12/13 00:33:44;;;;;;;23.07;11.55;;;;;;;-2.08;94.05;99235.20;1757160;81;25607;-63
2022/12/13 00:36:12;;;;;;;21.65;10.43;;;;;;;-2.10;94.05;99240.46;1768403;80;25440;-63
2022/12/13 00:38:38;;;;;;;22.50;12.60;;;;;;;-2.14;94.09;99239.37;1757037;81;27436;-63
2022/12/13 00:41:18;;;;;;;25.35;11.75;;;;;;;-2.14;94.22;99242.81;1768424;81;25398;-63
2022/12/13 00:43:46;;;;;;;21.62;10.82;;;;;;;-2.14;94.22;99242.81;1757073;81;25558;-63
2022/12/13 00:46:16;;;;;;;21.15;10.50;;;;;;;-2.13;94.26;99254.20;1768313;80;25639;-63
2022/12/13 00:48:49;;;;;;;27.37;10.38;;;;;;;-2.16;94.20;99254.70;1757069;81;25562;-63
2022/12/13 00:51:16;;;;;;;18.92;9.55;;;;;;;-2.19;94.18;99249.39;1772157;80;27510;-63
2022/12/13 00:53:43;;;;;;;22.13;9.18;;;;;;;-2.19;94.11;99256.02;1756102;81;25425;-63
2022/12/13 00:56:17;;;;;;;19.05;9.18;;;;;;;-2.21;94.00;99255.47;1776275;80;25555;-63
2022/12/13 00:58:45;;;;;;;18.57;10.40;;;;;;;-2.24;93.90;99257.29;1776248;80;25530;-63
2022/12/13 01:01:14;;;;;;;20.10;9.88;;;;;;;-2.24;93.89;99261.80;1776276;80;25453;-63
2022/12/13 01:03:42;;;;;;;20.48;9.88;;;;;;;-2.26;93.78;99262.05;1776462;79;32811;-63
2022/12/13 01:06:14;;;;;;;17.17;9.45;;;;;;;-2.29;93.67;99264.65;1745690;80;25401;-63
2022/12/13 01:08:42;;;;;;;25.52;11.97;;;;;;;-2.31;93.64;99260.67;1756195;81;25513;-63
2022/12/13 01:11:11;;;;;;;24.72;12.00;;;;;;;-2.32;93.42;99253.76;1776212;80;25450;-62
2022/12/13 01:13:39;;;;;;;14.78;7.72;;;;;;;-2.36;93.35;99256.11;1776441;80;25547;-63
2022/12/13 01:16:09;;;;;;;23.85;11.03;;;;;;;-2.38;93.34;99252.91;1776264;80;28142;-62
2022/12/13 01:18:36;;;;;;;24.18;11.03;;;;;;;-2.39;93.29;99263.75;1745729;80;25631;-63
2022/12/13 01:21:14;;;;;;;23.20;12.40;;;;;;;-2.41;93.28;99264.53;1756148;81;25416;-63
2022/12/13 01:23:44;;;;;;;19.20;9.23;;;;;;;-2.44;93.22;99266.61;1776257;80;26028;-63
2022/12/13 01:26:16;;;;;;;;;;;;;;;-2.47;93.26;99267.63;1745231;80;25518;-63
2022/12/13 01:28:43;;;;;;;18.25;9.65;;;;;;;-2.47;93.19;99268.45;1776308;80;27546;-63
2022/12/13 01:31:15;;;;;;;23.65;11.30;;;;;;;-2.49;93.18;99273.70;1745887;80;25406;-63
2022/12/13 01:33:42;;;;;;;20.72;10.23;;;;;;;-2.53;93.17;99266.78;1776299;80;25610;-62
2022/12/13 01:36:16;;;;;;;18.73;9.43;;;;;;;-2.54;93.26;99277.08;1776402;80;25553;-62
2022/12/13 01:38:43;;;;;;;20.70;10.18;;;;;;;-2.53;93.21;99273.93;1755711;81;25597;-62
2022/12/13 01:41:16;;;;;;;24.12;10.20;;;;;;;-2.54;93.09;99286.35;1776567;80;28197;-62
2022/12/13 01:43:51;;;;;;;15.43;8.98;;;;;;;-2.56;93.04;99279.72;1756297;81;25576;-62
2022/12/13 01:46:18;;;;;;;15.20;8.70;;;;;;;-2.60;92.95;99282.59;1756350;81;25533;-62
2022/12/13 01:48:50;;;;;;;15.72;8.10;;;;;;;-2.61;93.04;99282.30;1756304;81;25623;-62
2022/12/13 01:51:21;;;;;;;15.75;9.50;;;;;;;-2.61;93.12;99280.98;1760084;81;25594;-62
2022/12/13 01:53:50;;;;;;;14.73;8.68;;;;;;;-2.63;92.97;99287.31;1762008;81;28286;-62
2022/12/13 01:56:26;;;;;;;27.58;12.78;;;;;;;-2.63;93.16;99295.78;1761914;81;25550;-62
2022/12/13 01:58:54;;;;;;;19.70;10.45;;;;;;;-2.64;93.36;99288.88;1771617;80;25732;-62
2022/12/13 02:01:21;;;;;;;20.48;10.10;;;;;;;-2.61;93.48;99294.22;1761936;81;25528;-62
2022/12/13 02:03:48;;;;;;;21.07;9.63;;;;;;;-2.60;93.59;99291.86;1793417;80;25432;-63
2022/12/13 02:06:34;;;;;;;18.05;8.85;;;;;;;-2.58;93.69;99297.17;1761930;81;27546;-63
2022/12/13 02:09:04;;;;;;;13.90;8.03;;;;;;;-2.56;93.77;99293.75;1793268;80;25455;-62
2022/12/13 02:11:34;;;;;;;17.48;9.25;;;;;;;-2.55;93.77;99298.54;1762131;81;25537;-62
2022/12/13 02:14:02;;;;;;;17.10;8.60;;;;;;;-2.52;93.69;99305.97;1793275;80;25467;-62
2022/12/13 02:16:46;;;;;;;16.52;8.38;;;;;;;-2.53;93.63;99300.41;1762070;81;25598;-63
2022/12/13 02:19:56;;;;;;;13.03;7.80;;;;;;;-2.51;93.72;99300.95;1773374;80;27497;-63
2022/12/13 02:22:49;;;;;;;17.37;8.63;;;;;;;-2.49;93.85;99306.27;1761670;81;25791;-63
2022/12/13 02:25:48;;;;;;;20.52;8.43;;;;;;;-2.45;93.98;99306.61;1785565;80;25442;-65
2022/12/13 02:28:55;;;;;;;12.47;6.17;;;;;;;-2.43;93.98;99304.50;1681921;85;25565;-64
2022/12/13 02:31:32;;;;;;;18.75;10.20;;;;;;;-2.41;93.96;99296.31;1666382;86;25766;-64
2022/12/13 02:34:07;;;;;;;16.35;8.68;;;;;;;-2.39;93.94;99302.95;1668211;86;27678;-62
2022/12/13 02:36:39;;;;;;;16.77;9.75;;;;;;;-2.37;93.93;99308.80;1668252;86;25684;-61
2022/12/13 02:39:23;;;;;;;18.90;9.50;;;;;;;-2.36;93.86;99309.61;1668149;86;25617;-62
2022/12/13 02:41:57;;;;;;;20.97;10.50;;;;;;;-2.34;93.90;99313.60;1667663;86;25579;-62
2022/12/13 02:44:32;;;;;;;18.45;9.90;;;;;;;-2.31;93.81;99321.06;1668266;86;25285;-61
2022/12/13 02:47:07;;;;;;;19.02;9.63;;;;;;;-2.30;93.80;99316.55;1668172;86;27501;-63
2022/12/13 02:49:38;;;;;;;18.92;9.58;;;;;;;-2.28;93.78;99317.13;1667685;86;25703;-62
2022/12/13 02:52:08;;;;;;;17.35;8.50;;;;;;;-2.27;93.67;99316.86;1670647;85;25498;-62
2022/12/13 02:54:36;;;;;;;15.83;8.93;;;;;;;-2.26;93.72;99318.47;1671009;85;25609;-62
2022/12/13 02:57:03;;;;;;;16.42;8.30;;;;;;;-2.24;93.61;99323.52;1670979;85;25719;-63
2022/12/13 02:59:37;;;;;;;17.02;8.53;;;;;;;-2.23;93.59;99329.61;1699622;83;27501;-62
2022/12/13 03:02:32;;;;;;;19.80;10.75;;;;;;;-2.21;93.68;99334.12;1720738;82;25498;-62
2022/12/13 03:08:16;;;;;;;17.90;10.13;;;;;;;-2.18;93.40;99327.02;1727089;80;25523;-63
2022/12/13 03:11:11;;;;;;;20.23;11.15;;;;;;;-2.19;93.31;99322.78;1780192;80;25515;-62
2022/12/13 03:14:00;;;;;;;19.95;10.82;;;;;;;-2.20;93.29;99323.29;1764565;80;27563;-62
2022/12/13 03:16:43;;;;;;;24.82;12.75;;;;;;;-2.20;93.19;99322.50;1780245;80;25369;-62
2022/12/13 03:19:12;;;;;;;18.40;9.50;;;;;;;-2.18;93.25;99332.31;1780210;80;25613;-62
2022/12/13 03:21:45;;;;;;;12.88;6.87;;;;;;;-2.19;93.29;99324.11;1780294;80;25461;-63
2022/12/13 03:24:12;;;;;;;17.87;9.20;;;;;;;-2.19;93.31;99331.53;1780259;80;25623;-62
2022/12/13 03:26:41;;;;;;;17.52;9.70;;;;;;;-2.17;93.35;99324.66;1780149;80;27431;-63
2022/12/13 03:29:07;;;;;;;21.12;11.38;;;;;;;-2.17;93.30;99323.33;1780238;80;25225;-63
2022/12/13 03:31:33;;;;;;;20.37;8.95;;;;;;;-2.16;93.37;99327.06;1780111;80;25544;-63
2022/12/13 03:34:01;;;;;;;15.55;8.25;;;;;;;-2.16;93.23;99328.39;1780137;80;26288;-63
2022/12/13 03:36:27;;;;;;;19.82;9.83;;;;;;;-2.14;93.23;99322.84;1780157;80;25653;-63
2022/12/13 03:38:55;;;;;;;19.80;10.20;;;;;;;-2.13;93.28;99329.72;1780136;80;29724;-63
2022/12/13 03:41:34;;;;;;;15.83;8.90;;;;;;;-2.12;93.27;99333.45;1780089;80;25607;-63
2022/12/13 03:44:05;;;;;;;17.52;9.18;;;;;;;-2.10;93.34;99330.56;1778429;80;25588;-63
2022/12/13 03:46:32;;;;;;;16.50;9.10;;;;;;;-2.10;93.29;99330.02;1780170;80;25489;-63
2022/12/13 03:48:58;;;;;;;15.50;8.53;;;;;;;-2.08;93.24;99327.95;1780189;80;25381;-63
2022/12/13 03:51:25;;;;;;;18.75;9.25;;;;;;;-2.07;93.23;99332.72;1779753;80;27500;-63
2022/12/13 03:53:51;;;;;;;16.67;9.48;;;;;;;-2.07;93.18;99338.80;1761772;81;27364;-63
2022/12/13 03:56:17;;;;;;;15.60;8.50;;;;;;;-2.05;93.22;99331.14;1738749;80;25651;-63
2022/12/13 03:58:43;;;;;;;15.90;8.75;;;;;;;-2.04;93.25;99333.55;1761814;81;25490;-62
2022/12/13 04:01:14;;;;;;;21.02;10.38;;;;;;;-2.02;93.36;99331.45;1793279;80;25436;-62
2022/12/13 04:03:45;;;;;;;22.17;10.78;;;;;;;-1.99;93.33;99330.13;1761885;81;28106;-62
2022/12/13 04:06:14;;;;;;;18.82;9.85;;;;;;;-1.98;93.39;99335.72;1793155;80;25637;-62
2022/12/13 04:08:41;;;;;;;;;;;;;;;-1.95;93.44;99334.69;1764507;81;25572;-63
2022/12/13 04:13:55;;;;;;;20.97;11.30;;;;;;;-1.93;93.35;99334.45;1761937;81;25606;-62
2022/12/13 04:16:23;;;;;;;19.80;10.20;;;;;;;-1.91;93.06;99338.97;1793205;80;27457;-62
2022/12/13 04:18:50;;;;;;;17.23;10.58;;;;;;;-1.91;93.23;99342.44;1761778;81;25682;-62
2022/12/13 04:21:17;;;;;;;21.95;11.93;;;;;;;-1.92;93.16;99339.50;1793208;80;25488;-62
2022/12/13 04:23:44;;;;;;;20.77;11.57;;;;;;;-1.90;93.15;99339.25;1761816;81;25597;-62
2022/12/13 04:26:11;;;;;;;20.65;10.70;;;;;;;-1.90;93.12;99342.69;1793198;80;25613;-62
2022/12/13 04:28:38;;;;;;;20.40;11.90;;;;;;;-1.89;93.20;99347.46;1761839;81;27471;-62
2022/12/13 04:31:05;;;;;;;23.62;11.85;;;;;;;-1.89;93.13;99350.94;1793070;80;25570;-62
2022/12/13 04:33:33;;;;;;;22.95;11.30;;;;;;;-1.89;93.15;99346.14;1761884;81;25550;-63
2022/12/13 04:36:00;;;;;;;21.97;11.57;;;;;;;-1.89;93.19;99350.94;1793167;80;25540;-62
2022/12/13 04:38:27;;;;;;;23.22;11.88;;;;;;;-1.87;93.19;99353.34;1761841;81;25583;-62
2022/12/13 04:41:12;;;;;;;22.30;11.93;;;;;;;-1.86;93.27;99349.62;1793197;80;27565;-62
2022/12/13 04:43:39;;;;;;;24.80;12.55;;;;;;;-1.87;93.20;99353.34;1761766;81;25694;-62
2022/12/13 04:46:05;;;;;;;22.35;12.33;;;;;;;-1.86;93.01;99360.76;1763780;80;25624;-62
2022/12/13 04:48:33;;;;;;;20.70;10.88;;;;;;;-1.88;92.97;99358.35;1761773;81;27686;-62
2022/12/13 04:51:01;;;;;;;24.43;11.48;;;;;;;-1.87;92.94;99367.92;1788483;80;25450;-62
2022/12/13 04:53:29;;;;;;;24.18;12.40;;;;;;;-1.86;92.94;99367.38;1761886;81;28071;-62
2022/12/13 04:55:55;;;;;;;23.55;12.18;;;;;;;-1.86;92.90;99364.20;1793114;80;25609;-60
2022/12/13 04:58:21;;;;;;;22.32;11.70;;;;;;;-1.85;92.68;99368.46;1761803;81;25550;-62
2022/12/13 05:00:47;;;;;;;20.75;11.83;;;;;;;-1.84;92.81;99367.39;1793167;80;33707;-63
2022/12/13 05:03:14;;;;;;;20.43;11.40;;;;;;;-1.83;92.93;99369.55;1761877;81;32481;-63
2022/12/13 05:05:41;;;;;;;22.05;12.28;;;;;;;-1.82;92.92;99373.78;1793155;80;28309;-61
2022/12/13 05:08:08;;;;;;;23.80;12.88;;;;;;;-1.82;92.89;99369.30;1761791;81;25337;-63
2022/12/13 05:10:36;;;;;;;25.05;12.18;;;;;;;-1.82;92.73;99367.15;1793246;80;25443;-63
2022/12/13 05:13:03;;;;;;;30.20;14.20;;;;;;;-1.82;92.82;99377.25;1761192;81;25605;-62
2022/12/13 05:15:30;;;;;;;25.75;13.48;;;;;;;-1.83;92.77;99370.87;1792943;80;25720;-61
2022/12/13 05:18:06;;;;;;;28.73;13.28;;;;;;;-1.84;92.81;99371.38;1762010;81;28040;-61
2022/12/13 05:20:34;;;;;;;21.20;11.83;;;;;;;-1.82;92.76;99375.10;1793247;79;25594;-61
2022/12/13 05:23:01;;;;;;;23.27;12.35;;;;;;;-1.84;92.75;99377.20;1762020;81;25548;-61
2022/12/13 05:25:29;;;;;;;23.55;11.78;;;;;;;-1.84;92.65;99380.65;1793274;80;25522;-62
2022/12/13 05:27:56;;;;;;;26.30;11.95;;;;;;;-1.88;92.27;99385.66;1762000;81;25504;-61
2022/12/13 05:30:23;;;;;;;25.27;11.97;;;;;;;-1.91;92.09;99382.20;1793311;80;28109;-61
2022/12/13 05:32:49;;;;;;;23.47;12.07;;;;;;;-1.93;91.57;99388.78;1761900;81;25380;-61
2022/12/13 05:35:17;;;;;;;18.77;11.33;;;;;;;-1.96;91.74;99393.25;1793346;80;25426;-61
2022/12/13 05:37:43;;;;;;;13.83;8.17;;;;;;;-1.96;91.84;99390.59;1762163;81;25589;-61
2022/12/13 05:40:11;;;;;;;21.33;10.63;;;;;;;-1.98;91.85;99388.19;1762031;81;25566;-61
2022/12/13 05:42:38;;;;;;;22.13;10.78;;;;;;;-1.98;91.89;99393.49;1793327;80;27643;-61
2022/12/13 05:45:08;;;;;;;23.32;11.85;;;;;;;-1.99;91.63;99390.59;1761982;81;25442;-61
2022/12/13 05:47:36;;;;;;;24.57;12.50;;;;;;;-2.00;91.64;99398.78;1764437;80;25404;-63
2022/12/13 05:50:04;;;;;;;25.32;10.90;;;;;;;-2.01;91.57;99406.44;1761929;81;25555;-63
2022/12/13 05:52:31;;;;;;;21.75;11.15;;;;;;;-2.03;91.48;99404.57;1793486;80;25442;-61
2022/12/13 05:54:57;;;;;;;22.15;12.10;;;;;;;-2.04;91.54;99412.23;1761962;81;27582;-62
2022/12/13 05:57:24;;;;;;;25.43;13.30;;;;;;;-2.06;91.59;99407.17;1773353;80;25446;-62
2022/12/13 05:59:51;;;;;;;23.87;12.28;;;;;;;-2.07;91.53;99409.03;1762031;81;25599;-61
2022/12/13 06:02:17;;;;;;;19.42;10.00;;;;;;;-2.08;91.41;99412.75;1793403;80;25552;-61
2022/12/13 06:04:45;;;;;;;23.92;11.40;;;;;;;-2.08;91.37;99414.58;1762038;81;25578;-61
2022/12/13 06:07:12;;;;;;;19.60;10.68;;;;;;;-2.11;91.30;99419.04;1793361;80;27689;-61
2022/12/13 06:09:39;;;;;;;23.27;11.03;;;;;;;-2.12;91.43;99420.90;1761915;81;25370;-62
2022/12/13 06:12:08;;;;;;;25.30;12.45;;;;;;;-2.12;91.46;99428.84;1793329;80;25573;-63
2022/12/13 06:14:35;;;;;;;21.82;11.73;;;;;;;-2.15;91.27;99429.33;1762098;81;32257;-62
2022/12/13 06:17:03;;;;;;;24.15;12.90;;;;;;;-2.17;91.12;99428.78;1793325;80;25436;-62
2022/12/13 06:19:30;;;;;;;20.23;10.32;;;;;;;-2.20;91.08;99431.13;1761926;81;27473;-62
2022/12/13 06:21:56;;;;;;;22.62;10.48;;;;;;;-2.20;91.16;99434.57;1733634;81;25731;-62
2022/12/13 06:24:23;;;;;;;19.77;10.18;;;;;;;-2.20;91.00;99443.05;1793283;80;25569;-64
2022/12/13 06:26:51;;;;;;;25.52;11.63;;;;;;;-2.25;90.99;99443.77;1761912;81;25876;-62
2022/12/13 06:29:20;;;;;;;23.45;10.93;;;;;;;-2.26;90.92;99448.28;1793356;80;25529;-62
2022/12/13 06:31:53;;;;;;;24.45;11.08;;;;;;;-2.28;90.86;99455.68;1762091;81;28142;-62
2022/12/13 06:34:20;;;;;;;22.93;11.65;;;;;;;-2.30;91.02;99451.16;1793289;80;25618;-61
2022/12/13 06:36:46;;;;;;;25.48;12.25;;;;;;;-2.29;90.97;99464.66;1761932;81;25401;-61
2022/12/13 06:39:14;;;;;;;20.62;10.63;;;;;;;-2.31;90.79;99465.43;1773287;80;25534;-61
2022/12/13 06:41:42;;;;;;;18.77;10.50;;;;;;;-2.33;90.63;99462.77;1762003;81;25187;-61
2022/12/13 06:44:10;;;;;;;19.25;10.10;;;;;;;-2.36;90.45;99473.84;1793256;80;27487;-61
2022/12/13 06:46:37;;;;;;;20.92;10.88;;;;;;;-2.38;90.48;99469.28;1761916;81;27381;-60
2022/12/13 06:49:04;;;;;;;18.05;9.80;;;;;;;-2.40;90.39;99477.50;1793302;80;25546;-61
2022/12/13 06:51:33;;;;;;;18.95;10.10;;;;;;;-2.45;89.79;99492.79;1761428;81;25678;-61
2022/12/13 06:54:01;;;;;;;16.37;9.38;;;;;;;-2.49;89.69;99477.61;1776573;80;25566;-61
2022/12/13 06:56:30;;;;;;;18.23;9.55;;;;;;;-2.50;89.93;99481.33;1776345;80;27520;-62
2022/12/13 06:58:58;;;;;;;20.32;10.00;;;;;;;-2.56;89.94;99484.93;1776407;80;25565;-61
2022/12/13 07:01:24;;;;;;;16.48;8.53;;;;;;;-2.57;90.04;99488.61;1776387;80;25402;-61
2022/12/13 07:04:09;;;;;;;24.72;10.20;;;;;;;-2.57;89.99;99499.20;1745602;80;25662;-62
2022/12/13 07:06:36;;;;;;;21.27;10.53;;;;;;;-2.61;89.86;99493.59;1776408;80;25441;-62
2022/12/13 07:09:03;;;;;;;22.77;10.35;;;;;;;-2.61;89.96;99502.06;1745845;80;27621;-62
2022/12/13 07:11:32;;;;;;;19.77;9.18;;;;;;;-2.63;89.86;99504.95;1776231;80;25606;-62
2022/12/13 07:14:00;;;;;;;17.95;9.55;;;;;;;-2.65;89.80;99507.84;1776501;80;25629;-62
2022/12/13 07:16:28;;;;;;;16.60;9.35;;;;;;;-2.68;89.79;99510.95;1776304;80;25662;-62
2022/12/13 07:18:59;;;;;;;15.50;9.18;;;;;;;-2.68;89.84;99509.64;1776363;80;25531;-61
2022/12/13 07:21:26;;;;;;;18.02;9.05;;;;;;;-2.67;89.79;99521.84;1776337;80;29581;-63
2022/12/13 07:23:54;;;;;;;18.52;9.25;;;;;;;-2.68;89.16;99516.78;1776286;80;25531;-62
2022/12/13 07:26:20;;;;;;;15.88;8.48;;;;;;;-2.71;89.33;99523.34;1776414;80;25413;-63
2022/12/13 07:28:47;;;;;;;17.02;8.80;;;;;;;-2.71;89.22;99516.73;1776328;80;25563;-60
2022/12/13 07:31:14;;;;;;;15.90;8.55;;;;;;;-2.69;89.32;99521.79;1756290;81;25478;-61
2022/12/13 07:33:41;;;;;;;14.60;8.40;;;;;;;-2.71;89.07;99527.84;1748012;80;28332;-61
2022/12/13 07:36:18;;;;;;;16.27;8.45;;;;;;;-2.71;88.96;99531.81;1745641;81;25604;-61
2022/12/13 07:38:54;;;;;;;19.17;9.83;;;;;;;-2.71;88.99;99535.27;1745764;82;25491;-60
2022/12/13 07:41:23;;;;;;;16.60;9.10;;;;;;;-2.70;89.04;99540.84;1725953;83;25677;-62
2022/12/13 07:43:50;;;;;;;17.27;9.73;;;;;;;-2.71;88.84;99545.06;1745864;82;32676;-63
2022/12/13 07:46:17;;;;;;;14.33;7.58;;;;;;;-2.71;88.26;99549.82;1745682;81;27478;-63
2022/12/13 07:48:43;;;;;;;16.87;8.53;;;;;;;-2.73;88.25;99557.73;1745515;82;25860;-63
2022/12/13 07:51:11;;;;;;;18.40;8.47;;;;;;;-2.76;88.19;99551.06;1716010;82;25591;-63
2022/12/13 07:53:40;;;;;;;15.90;8.50;;;;;;;-2.78;88.22;99560.30;1745509;81;25442;-63
2022/12/13 07:56:11;;;;;;;16.10;8.80;;;;;;;-2.77;88.49;99557.41;1716520;82;25665;-60
2022/12/13 07:58:40;;;;;;;16.10;9.45;;;;;;;-2.77;88.41;99565.36;1745618;82;27503;-63
2022/12/13 08:01:10;;;;;;;;;;;;;;;-2.76;87.99;99566.94;1748103;82;25575;-62
2022/12/13 08:03:38;;;;;;;16.93;9.35;;;;;;;-2.77;88.24;99573.30;1745660;82;25595;-63
2022/12/13 08:06:11;;;;;;;15.97;8.67;;;;;;;-2.78;88.06;99569.56;1745811;82;25567;-63
2022/12/13 08:08:39;;;;;;;16.37;8.98;;;;;;;-2.76;88.59;99574.88;1745641;81;25445;-61
2022/12/13 08:11:14;;;;;;;14.60;8.05;;;;;;;-2.71;88.55;99582.91;1745584;82;27519;-61
2022/12/13 08:13:41;;;;;;;19.85;10.85;;;;;;;-2.70;88.08;99579.77;1715951;82;25417;-62
2022/12/13 08:16:13;;;;;;;15.90;9.38;;;;;;;-2.71;88.25;99580.80;1745571;82;25611;-62
2022/12/13 08:18:40;;;;;;;16.82;10.30;;;;;;;-2.70;88.19;99587.18;1745575;82;26018;-63
2022/12/13 08:21:08;;;;;;;14.73;8.40;;;;;;;-2.67;88.27;99580.63;1745596;82;25549;-63
2022/12/13 08:23:36;;;;;;;17.07;9.20;;;;;;;-2.70;87.91;99587.71;1745520;81;27468;-62
2022/12/13 08:26:05;;;;;;;13.13;8.18;;;;;;;-2.70;87.59;99593.00;1745428;81;25436;-60
2022/12/13 08:28:33;;;;;;;17.45;9.70;;;;;;;-2.71;87.68;99594.03;1745669;82;25649;-54
2022/12/13 08:31:07;;;;;;;14.35;8.85;;;;;;;-2.74;87.26;99583.41;1745497;81;26234;-54
2022/12/13 08:33:34;;;;;;;14.50;9.18;;;;;;;-2.75;87.70;99592.92;1745642;82;25555;-56
2022/12/13 08:36:15;;;;;;;16.17;9.58;;;;;;;-2.73;87.31;99595.59;1745583;82;27492;-57
2022/12/13 08:38:46;;;;;;;17.77;9.60;;;;;;;-2.74;87.55;99600.62;1745553;82;25494;-55
2022/12/13 08:41:13;;;;;;;20.32;10.85;;;;;;;-2.72;87.96;99603.83;1745596;81;25540;-50
2022/12/13 08:43:39;;;;;;;16.87;9.98;;;;;;;-2.66;88.15;99611.33;1745553;81;25568;-50
2022/12/13 08:46:06;;;;;;;21.75;10.53;;;;;;;-2.65;87.91;99608.45;1715948;82;25582;-51
2022/12/13 08:48:33;;;;;;;18.12;10.63;;;;;;;-2.63;87.77;99611.66;1716061;82;28105;-50
2022/12/13 08:51:07;;;;;;;16.50;10.53;;;;;;;-2.61;87.89;99606.66;1745357;82;25422;-52
2022/12/13 08:53:34;;;;;;;17.42;10.28;;;;;;;-2.61;87.98;99611.42;1745490;81;25552;-51
2022/12/13 08:56:08;;;;;;;16.90;10.10;;;;;;;-2.59;87.87;99613.30;1745468;82;25541;-51
2022/12/13 08:58:36;;;;;;;19.48;10.75;;;;;;;-2.59;87.47;99611.19;1745633;82;25492;-53
2022/12/13 09:01:08;;;;;;;17.17;10.75;;;;;;;-2.61;87.14;99609.30;1745591;82;27066;-51
2022/12/13 09:03:40;;;;;;;20.12;10.13;;;;;;;-2.63;87.18;99616.95;1745437;82;25442;-51
2022/12/13 09:06:13;;;;;;;21.90;12.70;;;;;;;-2.64;87.29;99612.72;1745652;82;25401;-49
2022/12/13 09:08:42;;;;;;;19.17;10.58;;;;;;;-2.63;87.04;99620.13;1745588;81;25619;-52
2022/12/13 09:11:12;;;;;;;17.30;10.80;;;;;;;-2.65;87.28;99619.57;1745654;82;25386;-53
2022/12/13 09:13:42;;;;;;;15.88;9.65;;;;;;;-2.70;86.77;99614.19;1745751;82;27601;-52
2022/12/13 09:16:22;;;;;;;17.00;10.63;;;;;;;-2.71;87.07;99623.95;1745571;82;25839;-51
2022/12/13 09:18:53;;;;;;;18.17;9.80;;;;;;;-2.72;87.11;99626.86;1741306;82;25641;-51
2022/12/13 09:21:23;;;;;;;18.85;10.43;;;;;;;-2.70;87.33;99620.80;1745529;81;25596;-53
2022/12/13 09:23:49;;;;;;;21.62;10.93;;;;;;;-2.65;87.11;99628.30;1745587;81;25184;-50
2022/12/13 09:26:16;;;;;;;18.80;10.55;;;;;;;-2.70;86.59;99627.42;1745493;81;27504;-49
2022/12/13 09:28:45;;;;;;;16.77;9.70;;;;;;;-2.65;86.83;99636.25;1745375;82;25221;-50
2022/12/13 09:31:18;;;;;;;19.92;10.32;;;;;;;-2.64;87.08;99635.72;1745540;82;25448;-50
2022/12/13 09:33:48;;;;;;;17.32;10.58;;;;;;;-2.59;86.51;99633.69;1745536;82;25606;-49
2022/12/13 09:36:19;;;;;;;;;;;;;;;-2.63;85.91;99631.52;1748201;82;25462;-52
2022/12/13 09:38:47;;;;;;;17.30;10.18;;;;;;;-2.63;86.25;99631.52;1756305;81;28240;-51
2022/12/13 09:41:26;;;;;;;14.30;9.20;;;;;;;-2.66;85.55;99638.60;1745604;82;25600;-50
2022/12/13 09:43:58;;;;;;;15.15;9.80;;;;;;;-2.65;86.05;99638.89;1745027;82;25580;-49
2022/12/13 09:46:38;;;;;;;16.35;9.35;;;;;;;-2.66;85.70;99643.90;1745487;82;25634;-48
2022/12/13 09:49:15;;;;;;;16.97;9.70;;;;;;;-2.64;86.56;99635.72;1745608;82;25612;-52
2022/12/13 09:51:48;;;;;;;14.87;9.35;;;;;;;-2.53;86.70;99644.67;1745546;82;27332;-49
2022/12/13 09:54:23;;;;;;;16.60;9.88;;;;;;;-2.51;85.97;99647.88;1745351;81;25877;-49
2022/12/13 09:56:54;;;;;;;13.98;8.55;;;;;;;-2.51;86.19;99643.91;1745618;82;25192;-54
2022/12/13 09:59:32;;;;;;;18.60;9.13;;;;;;;-2.50;85.77;99639.70;1745615;82;25509;-50
2022/12/13 10:02:18;;;;;;;12.60;8.18;;;;;;;-2.56;84.69;99649.91;1745729;81;25557;-50
2022/12/13 10:04:52;;;;;;;13.75;8.55;;;;;;;-2.58;85.00;99643.25;1745711;82;27879;-48
2022/12/13 10:07:24;;;;;;;17.55;9.55;;;;;;;-2.54;85.62;99648.34;1715950;82;26193;-52
2022/12/13 10:09:56;;;;;;;13.15;8.48;;;;;;;-2.55;85.17;99658.14;1745698;82;25617;-48
2022/12/13 10:12:27;;;;;;;13.58;9.48;;;;;;;-2.57;85.20;99658.08;1714761;83;25579;-49
2022/12/13 10:14:59;;;;;;;18.85;10.08;;;;;;;-2.59;85.07;99659.64;1716015;82;25467;-48
2022/12/13 10:17:33;;;;;;;16.52;9.93;;;;;;;-2.61;84.87;99648.49;1715979;83;27624;-48
2022/12/13 10:20:04;;;;;;;18.00;10.40;;;;;;;-2.63;85.33;99659.31;1715885;82;25418;-49
2022/12/13 10:22:32;;;;;;;16.97;10.05;;;;;;;-2.60;85.17;99658.05;1715994;82;25603;-50
2022/12/13 10:25:03;;;;;;;16.60;9.30;;;;;;;-2.60;85.38;99660.70;1715856;82;25625;-51
2022/12/13 10:27:47;;;;;;;16.87;10.03;;;;;;;-2.59;85.43;99658.84;1715996;82;25592;-52
2022/12/13 10:30:23;;;;;;;14.38;9.00;;;;;;;-2.61;85.08;99646.38;1715913;83;27645;-51
2022/12/13 10:33:04;;;;;;;16.90;8.45;;;;;;;-2.64;85.05;99645.81;1715841;83;25919;-53
2022/12/13 10:35:40;;;;;;;17.27;10.25;;;;;;;-2.65;85.37;99649.48;1715975;82;25442;-50
2022/12/13 10:38:19;;;;;;;16.20;9.58;;;;;;;-2.65;85.21;99645.52;1715956;83;25569;-51
2022/12/13 10:40:47;;;;;;;18.37;9.80;;;;;;;-2.64;85.21;99642.34;1716236;83;25542;-48
2022/12/13 10:43:30;;;;;;;17.05;9.20;;;;;;;-2.69;85.23;99647.55;1715924;82;27588;-52
2022/12/13 10:46:02;;;;;;;17.15;10.10;;;;;;;-2.74;85.30;99636.36;1715769;83;25447;-51
2022/12/13 10:48:49;;;;;;;16.00;9.00;;;;;;;-2.73;85.62;99649.07;1715915;83;25536;-52
2022/12/13 10:51:22;;;;;;;14.98;9.00;;;;;;;-2.78;85.87;99641.83;1715894;82;25570;-49
2022/12/13 10:53:57;;;;;;;19.60;9.10;;;;;;;-2.76;86.59;99642.39;1722047;81;25129;-49
2022/12/13 10:56:37;;;;;;;16.62;9.33;;;;;;;-2.72;86.83;99644.07;1731576;82;27701;-51
2022/12/13 10:59:21;;;;;;;16.07;9.70;;;;;;;-2.65;87.14;99646.05;1724000;82;25378;-51
2022/12/13 11:01:51;;;;;;;21.93;10.98;;;;;;;-2.59;86.61;99632.38;1731655;82;25411;-50
2022/12/13 11:04:35;;;;;;;20.17;10.58;;;;;;;-2.61;86.64;99640.55;1731646;82;25584;-49
2022/12/13 11:07:27;;;;;;;15.93;9.40;;;;;;;-2.57;86.67;99643.52;1731752;82;25623;-51
2022/12/13 11:09:57;;;;;;;19.07;10.45;;;;;;;-2.56;86.90;99635.87;1727765;82;27445;-51
2022/12/13 11:12:27;;;;;;;18.30;10.00;;;;;;;-2.50;86.90;99638.38;1731605;81;25603;-50
2022/12/13 11:15:02;;;;;;;15.53;10.50;;;;;;;-2.40;86.71;99640.40;1731689;82;25387;-50
2022/12/13 11:17:34;;;;;;;17.50;9.35;;;;;;;-2.38;86.34;99643.61;1731751;82;25723;-51
2022/12/13 11:20:20;;;;;;;16.48;9.63;;;;;;;-2.36;86.20;99633.56;1731703;82;25396;-53
2022/12/13 11:22:50;;;;;;;15.80;10.00;;;;;;;-2.31;86.18;99642.13;1729155;82;27665;-52
2022/12/13 11:25:24;;;;;;;16.07;9.63;;;;;;;-2.24;85.77;99648.07;1713730;83;27363;-50
2022/12/13 11:28:38;;;;;;;18.67;10.53;;;;;;;-2.27;85.52;99637.95;1713760;83;25446;-53
2022/12/13 11:31:23;;;;;;;17.70;9.93;;;;;;;-2.26;85.66;99643.01;1689534;84;27054;-52
2022/12/13 11:34:23;;;;;;;15.28;9.98;;;;;;;-2.21;85.76;99647.59;1686114;85;25499;-49
2022/12/13 11:37:17;;;;;;;15.50;9.53;;;;;;;-2.19;85.15;99651.33;1688965;84;26056;-57
2022/12/13 11:39:53;;;;;;;15.63;9.48;;;;;;;-2.31;84.41;99642.92;1686863;85;25695;-59
2022/12/13 11:43:15;;;;;;;16.17;9.95;;;;;;;-2.41;84.34;99636.66;1689699;84;25472;-51
2022/12/13 11:45:49;;;;;;;19.07;9.80;;;;;;;-2.44;84.77;99635.28;1695467;84;25458;-55
2022/12/13 11:48:37;;;;;;;16.40;9.80;;;;;;;-2.50;84.92;99650.29;1695510;84;25715;-52